Time,TemperatureF,DewpointF,PressureIn,WindDirection,WindDirectionDegrees,WindSpeedMPH,WindSpeedGustMPH,Humidity,HourlyPrecipIn,Conditions,Clouds,dailyrainin,SoftwareType,DateUTC
2013-05-24 00:09:00,41.4,37.0,30.31,ENE,59,1.0,3.0,83,0.00,,,0.26,weatherlink.com 1.10,2013-05-24 05:09:00,
2013-05-24 00:24:00,41.0,37.0,30.31,East,86,1.0,3.0,84,0.00,,,0.00,weatherlink.com 1.10,2013-05-24 05:24:00,
2013-05-24 00:39:00,40.8,36.0,30.31,ENE,68,1.0,3.0,83,0.00,,,0.00,weatherlink.com 1.10,2013-05-24 05:39:00,
2013-05-24 00:54:00,40.7,36.0,30.32,ESE,109,2.0,3.0,83,0.00,,,0.00,weatherlink.com 1.10,2013-05-24 05:54:00,
2013-05-24 01:09:00,40.6,36.0,30.32,NE,56,0.0,2.0,83,0.00,,,0.00,weatherlink.com 1.10,2013-05-24 06:09:00,
2013-05-24 01:24:00,40.3,36.0,30.33,NE,46,1.0,2.0,84,0.00,,,0.00,weatherlink.com 1.10,2013-05-24 06:24:00,
2013-05-24 01:40:00,40.0,36.0,30.32,NE,55,0.0,2.0,85,0.00,,,0.00,weatherlink.com 1.10,2013-05-24 06:40:00,
2013-05-24 01:54:00,39.8,36.0,30.33,NE,55,0.0,2.0,85,0.00,,,0.00,weatherlink.com 1.10,2013-05-24 06:54:00,
2013-05-24 02:09:00,39.5,36.0,30.32,NE,55,1.0,2.0,86,0.00,,,0.00,weatherlink.com 1.10,2013-05-24 07:09:00,
2013-05-24 02:24:00,39.3,36.0,30.32,ENE,65,0.0,3.0,86,0.00,,,0.00,weatherlink.com 1.10,2013-05-24 07:24:00,
2013-05-24 02:39:00,39.4,36.0,30.32,NE,51,1.0,3.0,86,0.00,,,0.00,weatherlink.com 1.10,2013-05-24 07:39:00,
2013-05-24 02:54:00,39.2,35.0,30.33,NE,51,0.0,2.0,86,0.00,,,0.00,weatherlink.com 1.10,2013-05-24 07:54:00,
2013-05-24 03:09:00,39.0,35.0,30.34,NE,51,0.0,0.0,86,0.00,,,0.00,weatherlink.com 1.10,2013-05-24 08:09:00,
2013-05-24 03:24:00,38.0,35.0,30.35,NE,38,1.0,1.0,88,0.00,,,0.00,weatherlink.com 1.10,2013-05-24 08:24:00,
2013-05-24 03:39:00,37.3,35.0,30.36,NE,38,0.0,1.0,90,0.00,,,0.00,weatherlink.com 1.10,2013-05-24 08:39:00,
2013-05-24 03:54:00,36.9,35.0,30.36,NE,38,0.0,1.0,91,0.00,,,0.00,weatherlink.com 1.10,2013-05-24 08:54:00,
2013-05-24 04:09:00,36.5,34.0,30.36,NE,38,0.0,1.0,92,0.00,,,0.00,weatherlink.com 1.10,2013-05-24 09:09:00,
2013-05-24 04:24:00,36.3,35.0,30.36,NE,38,1.0,2.0,93,0.00,,,0.00,weatherlink.com 1.10,2013-05-24 09:24:00,
2013-05-24 04:39:00,36.2,34.0,30.37,NE,38,0.0,1.0,93,0.00,,,0.00,weatherlink.com 1.10,2013-05-24 09:39:00,
2013-05-24 04:54:00,36.2,34.0,30.37,NE,38,0.0,2.0,93,0.00,,,0.00,weatherlink.com 1.10,2013-05-24 09:54:00,
2013-05-24 05:10:00,36.0,34.0,30.36,NE,38,0.0,0.0,93,0.00,,,0.00,weatherlink.com 1.10,2013-05-24 10:10:00,
2013-05-24 05:25:00,35.6,34.0,30.37,NE,38,0.0,0.0,93,0.00,,,0.00,weatherlink.com 1.10,2013-05-24 10:25:00,
2013-05-24 05:40:00,35.3,34.0,30.37,NE,38,0.0,0.0,93,0.00,,,0.00,weatherlink.com 1.10,2013-05-24 10:40:00,
2013-05-24 05:55:00,35.1,34.0,30.37,NE,38,0.0,0.0,94,0.00,,,0.00,weatherlink.com 1.10,2013-05-24 10:55:00,
2013-05-24 06:10:00,35.4,34.0,30.38,NE,38,0.0,1.0,95,0.00,,,0.00,weatherlink.com 1.10,2013-05-24 11:10:00,
2013-05-24 06:25:00,36.1,35.0,30.39,NE,38,0.0,2.0,95,0.00,,,0.00,weatherlink.com 1.10,2013-05-24 11:25:00,
2013-05-24 06:40:00,37.2,36.0,30.40,NE,38,0.0,2.0,94,0.00,,,0.00,weatherlink.com 1.10,2013-05-24 11:40:00,
2013-05-24 06:55:00,38.3,36.0,30.41,NNE,15,0.0,2.0,92,0.00,,,0.00,weatherlink.com 1.10,2013-05-24 11:55:00,
2013-05-24 07:10:00,39.3,37.0,30.42,North,355,1.0,3.0,91,0.00,,,0.00,weatherlink.com 1.10,2013-05-24 12:10:00,
2013-05-24 07:25:00,40.5,38.0,30.43,East,101,1.0,2.0,89,0.00,,,0.00,weatherlink.com 1.10,2013-05-24 12:25:00,
2013-05-24 07:40:00,42.1,38.0,30.44,ENE,71,0.0,2.0,86,0.00,,,0.00,weatherlink.com 1.10,2013-05-24 12:40:00,
2013-05-24 07:55:00,44.0,39.0,30.44,ENE,70,0.0,2.0,82,0.00,,,0.00,weatherlink.com 1.10,2013-05-24 12:55:00,
2013-05-24 08:10:00,45.0,38.0,30.45,NNE,17,0.0,3.0,77,0.00,,,0.00,weatherlink.com 1.10,2013-05-24 13:10:00,
2013-05-24 08:25:00,45.8,39.0,30.46,North,360,0.0,3.0,76,0.00,,,0.00,weatherlink.com 1.10,2013-05-24 13:25:00,
2013-05-24 08:40:00,46.6,39.0,30.46,ENE,67,0.0,3.0,74,0.00,,,0.00,weatherlink.com 1.10,2013-05-24 13:40:00,
2013-05-24 08:55:00,47.6,39.0,30.46,ENE,72,1.0,3.0,72,0.00,,,0.00,weatherlink.com 1.10,2013-05-24 13:55:00,
2013-05-24 09:10:00,48.7,36.0,30.46,ENE,61,3.0,3.0,63,0.00,,,0.00,weatherlink.com 1.10,2013-05-24 14:10:00,
2013-05-24 09:25:00,49.0,36.0,30.46,ESE,104,1.0,4.0,62,0.00,,,0.00,weatherlink.com 1.10,2013-05-24 14:25:00,
2013-05-24 09:40:00,49.9,38.0,30.46,East,88,5.0,5.0,64,0.00,,,0.00,weatherlink.com 1.10,2013-05-24 14:40:00,
2013-05-24 09:55:00,50.5,39.0,30.45,ENE,61,1.0,5.0,64,0.00,,,0.00,weatherlink.com 1.10,2013-05-24 14:55:00,
2013-05-24 10:10:00,50.8,37.0,30.45,North,360,0.0,4.0,59,0.00,,,0.00,weatherlink.com 1.10,2013-05-24 15:10:00,
2013-05-24 10:25:00,51.4,38.0,30.45,NNE,24,1.0,6.0,60,0.00,,,0.00,weatherlink.com 1.10,2013-05-24 15:25:00,
2013-05-24 10:40:00,52.3,37.0,30.44,NNE,26,0.0,4.0,57,0.00,,,0.00,weatherlink.com 1.10,2013-05-24 15:40:00,
2013-05-24 10:55:00,53.6,38.0,30.45,ENE,78,1.0,6.0,57,0.00,,,0.00,weatherlink.com 1.10,2013-05-24 15:55:00,
2013-05-24 11:11:00,54.6,38.0,30.45,NNW,340,5.0,5.0,54,0.00,,,0.00,weatherlink.com 1.10,2013-05-24 16:11:00,
2013-05-24 11:26:00,55.8,39.0,30.45,NNE,33,1.0,3.0,54,0.00,,,0.00,weatherlink.com 1.10,2013-05-24 16:26:00,
2013-05-24 11:41:00,56.6,38.0,30.44,ESE,118,1.0,4.0,50,0.00,,,0.00,weatherlink.com 1.10,2013-05-24 16:41:00,
2013-05-24 11:56:00,57.9,41.0,30.44,NNE,29,1.0,4.0,53,0.00,,,0.00,weatherlink.com 1.10,2013-05-24 16:56:00,
2013-05-24 12:11:00,58.2,41.0,30.44,ENE,59,4.0,6.0,54,0.00,,,0.00,weatherlink.com 1.10,2013-05-24 17:11:00,
2013-05-24 12:26:00,58.9,39.0,30.43,NE,53,2.0,4.0,48,0.00,,,0.00,weatherlink.com 1.10,2013-05-24 17:26:00,
2013-05-24 12:41:00,59.5,40.0,30.43,NE,53,1.0,4.0,48,0.00,,,0.00,weatherlink.com 1.10,2013-05-24 17:41:00,
2013-05-24 12:56:00,60.5,40.0,30.43,ESE,117,3.0,5.0,48,0.00,,,0.00,weatherlink.com 1.10,2013-05-24 17:56:00,
2013-05-24 13:11:00,60.5,40.0,30.42,NNE,20,0.0,5.0,47,0.00,,,0.00,weatherlink.com 1.10,2013-05-24 18:11:00,
2013-05-24 13:26:00,61.1,41.0,30.42,North,10,1.0,4.0,48,0.00,,,0.00,weatherlink.com 1.10,2013-05-24 18:26:00,
2013-05-24 13:41:00,60.8,41.0,30.41,NE,36,2.0,4.0,49,0.00,,,0.00,weatherlink.com 1.10,2013-05-24 18:41:00,
2013-05-24 13:56:00,61.3,40.0,30.40,East,80,0.0,4.0,45,0.00,,,0.00,weatherlink.com 1.10,2013-05-24 18:56:00,
2013-05-24 14:11:00,61.5,42.0,30.40,ESE,111,3.0,5.0,49,0.00,,,0.00,weatherlink.com 1.10,2013-05-24 19:11:00,
2013-05-24 14:26:00,61.4,42.0,30.39,ESE,102,3.0,5.0,50,0.00,,,0.00,weatherlink.com 1.10,2013-05-24 19:26:00,
2013-05-24 14:41:00,62.1,43.0,30.39,North,5,1.0,3.0,49,0.00,,,0.00,weatherlink.com 1.10,2013-05-24 19:41:00,
2013-05-24 14:56:00,62.2,47.0,30.39,East,84,1.0,5.0,58,0.00,,,0.00,weatherlink.com 1.10,2013-05-24 19:56:00,
2013-05-24 15:11:00,62.4,44.0,30.38,ENE,76,0.0,3.0,51,0.00,,,0.00,weatherlink.com 1.10,2013-05-24 20:11:00,
2013-05-24 15:26:00,61.8,43.0,30.37,ESE,104,2.0,5.0,50,0.00,,,0.00,weatherlink.com 1.10,2013-05-24 20:26:00,
2013-05-24 15:41:00,62.6,42.0,30.36,East,94,1.0,3.0,48,0.00,,,0.00,weatherlink.com 1.10,2013-05-24 20:41:00,
2013-05-24 15:56:00,62.5,42.0,30.35,East,96,2.0,4.0,47,0.00,,,0.00,weatherlink.com 1.10,2013-05-24 20:56:00,
2013-05-24 16:11:00,62.7,41.0,30.34,ENE,76,3.0,5.0,45,0.00,,,0.00,weatherlink.com 1.10,2013-05-24 21:11:00,
2013-05-24 16:26:00,63.0,40.0,30.34,ESE,111,2.0,4.0,43,0.00,,,0.00,weatherlink.com 1.10,2013-05-24 21:26:00,
2013-05-24 16:41:00,62.9,41.0,30.34,ENE,74,0.0,3.0,45,0.00,,,0.00,weatherlink.com 1.10,2013-05-24 21:41:00,
2013-05-24 16:56:00,63.0,40.0,30.34,East,84,1.0,5.0,43,0.00,,,0.00,weatherlink.com 1.10,2013-05-24 21:56:00,
2013-05-24 17:11:00,63.8,42.0,30.34,East,81,1.0,3.0,45,0.00,,,0.00,weatherlink.com 1.10,2013-05-24 22:11:00,
2013-05-24 17:26:00,63.6,44.0,30.33,ESE,112,1.0,4.0,49,0.00,,,0.00,weatherlink.com 1.10,2013-05-24 22:26:00,
2013-05-24 17:41:00,64.2,42.0,30.33,SSE,155,2.0,4.0,45,0.00,,,0.00,weatherlink.com 1.10,2013-05-24 22:41:00,
2013-05-24 17:56:00,63.6,43.0,30.32,SE,134,1.0,5.0,47,0.00,,,0.00,weatherlink.com 1.10,2013-05-24 22:56:00,
2013-05-24 18:11:00,63.3,43.0,30.32,ESE,109,1.0,5.0,48,0.00,,,0.00,weatherlink.com 1.10,2013-05-24 23:11:00,
2013-05-24 18:26:00,62.6,41.0,30.32,SSE,155,2.0,5.0,45,0.00,,,0.00,weatherlink.com 1.10,2013-05-24 23:26:00,
2013-05-24 18:41:00,61.5,40.0,30.33,SE,124,2.0,4.0,46,0.00,,,0.00,weatherlink.com 1.10,2013-05-24 23:41:00,
2013-05-24 18:56:00,60.5,39.0,30.32,SE,137,2.0,4.0,46,0.00,,,0.00,weatherlink.com 1.10,2013-05-24 23:56:00,
2013-05-24 19:11:00,59.1,39.0,30.32,ESE,109,2.0,5.0,47,0.00,,,0.00,weatherlink.com 1.10,2013-05-25 00:11:00,
2013-05-24 19:26:00,58.2,38.0,30.32,ESE,112,1.0,4.0,47,0.00,,,0.00,weatherlink.com 1.10,2013-05-25 00:26:00,
2013-05-24 19:41:00,57.3,36.0,30.33,ESE,120,1.0,4.0,45,0.00,,,0.00,weatherlink.com 1.10,2013-05-25 00:41:00,
2013-05-24 19:56:00,56.7,38.0,30.33,ESE,111,2.0,4.0,50,0.00,,,0.00,weatherlink.com 1.10,2013-05-25 00:56:00,
2013-05-24 20:11:00,55.8,37.0,30.34,ESE,119,3.0,3.0,50,0.00,,,0.00,weatherlink.com 1.10,2013-05-25 01:11:00,
2013-05-24 20:26:00,55.0,36.0,30.34,ESE,119,2.0,4.0,49,0.00,,,0.00,weatherlink.com 1.10,2013-05-25 01:26:00,
2013-05-24 20:41:00,54.4,36.0,30.34,ESE,113,2.0,3.0,51,0.00,,,0.00,weatherlink.com 1.10,2013-05-25 01:41:00,
2013-05-24 20:56:00,53.9,36.0,30.34,ESE,113,0.0,3.0,51,0.00,,,0.00,weatherlink.com 1.10,2013-05-25 01:56:00,
2013-05-24 21:11:00,53.4,37.0,30.36,ESE,112,0.0,3.0,54,0.00,,,0.00,weatherlink.com 1.10,2013-05-25 02:11:00,
2013-05-24 21:26:00,52.8,38.0,30.36,ESE,112,1.0,3.0,58,0.00,,,0.00,weatherlink.com 1.10,2013-05-25 02:26:00,
2013-05-24 21:41:00,51.9,39.0,30.37,ESE,112,0.0,2.0,61,0.00,,,0.00,weatherlink.com 1.10,2013-05-25 02:41:00,
2013-05-24 21:56:00,51.1,40.0,30.38,ESE,112,0.0,2.0,65,0.00,,,0.00,weatherlink.com 1.10,2013-05-25 02:56:00,
2013-05-24 22:11:00,50.4,40.0,30.39,ESE,112,0.0,1.0,68,0.00,,,0.00,weatherlink.com 1.10,2013-05-25 03:11:00,
2013-05-24 22:26:00,49.7,40.0,30.39,ESE,112,1.0,2.0,69,0.00,,,0.00,weatherlink.com 1.10,2013-05-25 03:26:00,
2013-05-24 22:41:00,49.0,40.0,30.39,ESE,112,1.0,2.0,71,0.00,,,0.00,weatherlink.com 1.10,2013-05-25 03:41:00,
2013-05-24 22:56:00,48.5,40.0,30.38,ESE,112,0.0,2.0,72,0.00,,,0.00,weatherlink.com 1.10,2013-05-25 03:56:00,
2013-05-24 23:11:00,48.0,40.0,30.38,ESE,112,0.0,2.0,75,0.00,,,0.00,weatherlink.com 1.10,2013-05-25 04:11:00,
2013-05-24 23:26:00,47.7,40.0,30.38,ESE,112,0.0,2.0,74,0.00,,,0.00,weatherlink.com 1.10,2013-05-25 04:26:00,
2013-05-24 23:41:00,47.6,40.0,30.38,ESE,112,0.0,2.0,75,0.00,,,0.00,weatherlink.com 1.10,2013-05-25 04:41:00,
2013-05-24 23:56:00,47.2,40.0,30.36,ESE,112,1.0,2.0,75,0.00,,,0.00,weatherlink.com 1.10,2013-05-25 04:56:00,